ADDS METAR Data INFO
IDs: Format: Raw Decoded Include TAF

Data at: 1050 UTC 24 Nov 2017

KRWL 240953Z AUTO 25018G27KT 10SM -RA CLR 07/00 A2996 RMK AO2 PK WND 25029/0856 SLP094 P0000 T00670000
KRWL 240853Z AUTO 24024G30KT 10SM -RA CLR 07/01 A2998 RMK AO2 PK WND 24034/0827 SLP100 P0000 60000 T00670006 55008
KRWL 240753Z AUTO 25026G33KT 10SM -RA CLR 07/01 A2997 RMK AO2 PK WND 25036/0725 SLP095 P0000 T00720006
KRWL 240653Z AUTO 25027G35KT 10SM -RA CLR 08/01 A2999 RMK AO2 PK WND 25036/0635 SLP100 P0000 T00780006 401330044
KRWL 240553Z AUTO 25025G32KT 10SM -RA CLR 08/01 A3001 RMK AO2 PK WND 24036/0509 SLP107 P0000 60000 T00830006 10111 20083 56015
KRWL 240453Z AUTO 24026G34KT 10SM -RA CLR 08/01 A3002 RMK AO2 PK WND 25034/0447 SLP112 P0000 T00830006
KRWL 240353Z AUTO 25023G31KT 10SM -RA CLR 09/01 A3004 RMK AO2 PK WND 24033/0336 RAB06 SLP121 P0000 T00940006
KRWL 240253Z AUTO 24013G19KT 10SM CLR 09/01 A3006 RMK AO2 SLP139 T00940011 58011
KRWL 240153Z AUTO 24015KT 10SM CLR 10/02 A3009 RMK AO2 SLP150 T01000017
KRWL 240053Z AUTO 24013KT 10SM CLR 09/03 A3011 RMK AO2 SLP159 T00890028
KRWL 232353Z AUTO 24019G25KT 10SM CLR 11/02 A3010 RMK AO2 PK WND 24028/2308 SLP150 60000 T01110022 10133 20111 56013
KRWL 232253Z AUTO 24019G23KT 10SM CLR 12/03 A3012 RMK AO2 PK WND 22030/2234 RAB41E46 SLP152 P0000 T01220028
KRWL 232153Z AUTO 24014G21KT 10SM CLR 12/03 A3013 RMK AO2 PK WND 24026/2122 SLP158 T01170028
KRWL 232053Z AUTO 22018G22KT 10SM CLR 12/03 A3015 RMK AO2 SLP160 60000 T01220028 56024
KRWL 231953Z AUTO 23014G22KT 10SM CLR 12/03 A3018 RMK AO2 PK WND 23026/1941 SLP169 T01220028
KRWL 231853Z AUTO 24016G22KT 10SM CLR 12/03 A3021 RMK AO2 PK WND 23027/1823 RAE33 SLP181 P0000 T01170028
KRWL 231753Z AUTO 23019G28KT 10SM -RA CLR 12/03 A3024 RMK AO2 PK WND 23032/1736 SLP191 P0000 60000 T01170028 10117 20044 56014
KRWL 231653Z AUTO 23017G31KT 10SM -RA CLR 11/03 A3025 RMK AO2 PK WND 24031/1649 RAB19 SLP199 P0000 T01110028
KRWL 231553Z AUTO VRB04KT 10SM CLR 09/02 A3027 RMK AO2 SLP208 T00890022
KRWL 231453Z AUTO 25012KT 10SM CLR 06/02 A3029 RMK AO2 SLP222 T00610017 56004
KRWL 231353Z AUTO 25010KT 10SM CLR 06/02 A3029 RMK AO2 SLP222 T00560017
KRWL 231253Z AUTO 25012KT 10SM CLR 05/02 A3030 RMK AO2 SLP226 T00500017
KRWL 231153Z AUTO 25013KT 10SM CLR 06/02 A3030 RMK AO2 PK WND 24027/1131 SLP224 T00560022 10072 20056 55011
KRWL 231053Z AUTO 26017KT 10SM CLR 06/02 A3029 RMK AO2 PK WND 25026/1022 SLP221 T00560022
KRWL 230953Z AUTO 25016G23KT 10SM CLR 06/03 A3032 RMK AO2 SLP227 T00610028
KRWL 230853Z AUTO 25018KT 10SM CLR 06/03 A3034 RMK AO2 SLP229 T00610028 58004
KRWL 230753Z AUTO 24012KT 10SM CLR 07/03 A3036 RMK AO2 SLP239 T00670033
KRWL 230653Z AUTO 24013KT 10SM CLR 07/03 A3037 RMK AO2 SLP243 T00720033 401220050
KRWL 230553Z AUTO 24018G22KT 10SM CLR 07/04 A3036 RMK AO2 SLP240 60000 T00720039 10094 20067 51004
KRWL 230453Z AUTO 25018G25KT 10SM CLR 07/03 A3035 RMK AO2 PK WND 25026/0402 SLP241 T00670033
KRWL 230353Z AUTO 25021G27KT 10SM CLR 08/04 A3036 RMK AO2 PK WND 25030/0308 RAB0257E25 SLP241 P0000 T00780039
KRWL 230253Z AUTO 26020G27KT 10SM CLR 08/04 A3034 RMK AO2 PK WND 25028/0231 SLP242 T00780039 58000
KRWL 230153Z AUTO 27018G23KT 10SM CLR 08/04 A3036 RMK AO2 SLP246 T00830044
KRWL 230053Z AUTO 26018G24KT 10SM CLR 09/04 A3036 RMK AO2 SLP243 T00890044
KRWL 222353Z AUTO 25016G22KT 10SM CLR 09/04 A3035 RMK AO2 PK WND 25026/2254 RAE2254 SLP239 P0000 60000 T00940044 10122 20089 51004
KRWL 222253Z AUTO 26021KT 10SM -RA CLR 10/04 A3034 RMK AO2 PK WND 26029/2200 RAE12B40 SLP238 P0000 T01000044